Time;durP1;ratioP1;P1;durP2;ratioP2;P2;SDS_P1;SDS_P2;PMS_P1;PMS_P2;Temp;Humidity;BMP_temperature;BMP_pressure;BME280_temperature;BME280_humidity;BME280_pressure;Samples;Min_cycle;Max_cycle;Signal;HPM_P1;HPM_P2
2022/09/07 00:00:52;;;;;;;7.55;3.78;;;;;;;18.72;56.64;95654.00;5117351;28;20423;-89
2022/09/07 00:03:18;;;;;;;8.55;3.75;;;;;;;19.29;56.51;95738.06;5098032;28;20116;-89
2022/09/07 00:05:46;;;;;;;8.95;4.35;;;;;;;18.84;56.85;95689.88;5097916;28;20035;-89
2022/09/07 00:08:13;;;;;;;7.55;3.40;;;;;;;19.06;56.46;95741.97;5115932;28;20184;-88
2022/09/07 00:10:38;;;;;;;7.43;4.30;;;;;;;18.81;56.28;95690.53;5097915;28;20050;-88
2022/09/07 00:13:05;;;;;;;5.22;3.38;;;;;;;18.96;55.98;95710.00;5097312;28;20027;-90
2022/09/07 00:15:31;;;;;;;4.45;3.25;;;;;;;19.08;56.46;95739.75;5097954;28;20043;-90
2022/09/07 00:17:57;;;;;;;5.90;2.92;;;;;;;18.69;56.13;95678.81;5098005;28;20035;-89
2022/09/07 00:20:22;;;;;;;5.05;3.25;;;;;;;18.32;56.15;95626.34;5115883;28;20035;-89
2022/09/07 00:22:48;;;;;;;7.88;3.50;;;;;;;18.68;56.00;95696.03;5097667;28;20050;-89
2022/09/07 00:25:13;;;;;;;7.25;3.15;;;;;;;19.00;55.71;95735.13;5097385;28;20174;-89
2022/09/07 00:27:39;;;;;;;6.43;3.00;;;;;;;19.02;55.52;95728.34;5085703;28;20075;-89
2022/09/07 00:30:05;;;;;;;4.43;3.00;;;;;;;19.00;54.84;95727.88;5073915;28;20104;-89
2022/09/07 00:32:31;;;;;;;7.43;3.50;;;;;;;18.50;54.86;95644.13;5078359;28;20036;-89
2022/09/07 00:34:57;;;;;;;5.80;3.20;;;;;;;19.15;55.00;95737.38;5080650;28;20173;-89
2022/09/07 00:37:22;;;;;;;6.63;3.20;;;;;;;18.48;54.21;95620.25;5077584;28;20173;-89
2022/09/07 00:39:48;;;;;;;9.02;3.58;;;;;;;18.24;54.72;95630.59;5073669;28;20040;-90
2022/09/07 00:42:17;;;;;;;9.15;3.00;;;;;;;18.95;54.51;95724.53;5074033;28;20108;-90
2022/09/07 00:44:43;;;;;;;8.00;3.35;;;;;;;19.08;54.22;95735.16;5076229;28;20046;-90
2022/09/07 00:47:16;;;;;;;11.43;3.17;;;;;;;18.11;53.88;95570.56;5076979;28;20062;-90
2022/09/07 00:49:45;;;;;;;7.75;2.97;;;;;;;19.03;53.84;95719.19;5076858;28;20036;-90
2022/09/07 00:52:12;;;;;;;5.18;2.60;;;;;;;18.72;53.76;95675.50;5077262;28;20028;-89
2022/09/07 00:54:51;;;;;;;5.45;2.40;;;;;;;18.34;53.97;95624.16;5077688;28;20028;-90
2022/09/07 00:57:17;;;;;;;5.90;3.15;;;;;;;17.30;53.76;95460.09;5077745;28;20490;-90
2022/09/07 00:59:48;;;;;;;12.15;3.03;;;;;;;18.72;53.58;95676.28;5073605;28;20048;-90
2022/09/07 01:02:15;;;;;;;5.88;3.35;;;;;;;16.22;54.05;95301.63;5076373;28;20036;-90
2022/09/07 01:04:45;;;;;;;8.75;3.20;;;;;;;18.86;53.60;95690.38;5079024;28;20042;-90
2022/09/07 01:07:11;;;;;;;5.80;3.00;;;;;;;18.51;53.64;95635.75;5077102;28;20143;-90
2022/09/07 01:09:37;;;;;;;6.82;3.50;;;;;;;18.83;53.60;95687.53;5077187;28;20063;-89
2022/09/07 01:12:03;;;;;;;6.82;3.47;;;;;;;17.99;53.39;95543.53;5076397;28;20108;-90
2022/09/07 01:14:36;;;;;;;8.63;3.35;;;;;;;19.01;53.61;95724.06;5068512;28;20502;-90
2022/09/07 01:17:20;;;;;;;7.82;3.72;;;;;;;19.01;53.62;95723.28;5076305;28;20058;-90
2022/09/07 01:20:07;;;;;;;11.40;3.42;;;;;;;18.97;53.73;95717.75;5076394;28;20036;-88
2022/09/07 01:23:03;;;;;;;7.03;3.17;;;;;;;18.22;53.13;95599.81;5074267;28;20525;-88
2022/09/07 01:25:57;;;;;;;5.82;3.35;;;;;;;19.08;52.74;95719.03;5075110;28;20032;-88
2022/09/07 01:28:26;;;;;;;7.93;3.38;;;;;;;18.49;53.29;95648.69;5075949;28;20028;-88
2022/09/07 01:31:12;;;;;;;9.07;3.08;;;;;;;18.96;52.99;95712.69;5074547;28;20422;-87
2022/09/07 01:33:49;;;;;;;7.35;2.67;;;;;;;19.09;52.24;95715.25;5092530;28;20039;-88
2022/09/07 01:36:24;;;;;;;9.82;3.13;;;;;;;18.60;52.39;95640.38;5075080;28;20039;-88
2022/09/07 01:38:57;;;;;;;8.23;3.20;;;;;;;18.90;52.94;95730.88;5077303;28;20043;-87
2022/09/07 01:41:42;;;;;;;5.68;3.08;;;;;;;18.91;52.67;95713.63;5075238;28;20587;-87
2022/09/07 01:44:15;;;;;;;10.32;3.08;;;;;;;18.88;52.91;95715.03;5075747;28;20540;-87
2022/09/07 01:47:00;;;;;;;4.68;2.97;;;;;;;17.91;52.71;95559.59;5076180;28;20119;-87
2022/09/07 01:49:29;;;;;;;5.50;2.67;;;;;;;18.90;52.99;95720.13;5075459;28;20074;-87
2022/09/07 01:52:00;;;;;;;5.78;2.75;;;;;;;17.91;53.11;95602.53;5075095;28;20032;-87
2022/09/07 01:54:33;;;;;;;5.20;3.13;;;;;;;17.69;53.00;95547.84;5078105;28;20044;-87
2022/09/07 01:57:13;;;;;;;5.53;3.22;;;;;;;18.63;52.74;95674.66;5078090;28;20119;-88
2022/09/07 01:59:49;;;;;;;6.45;3.25;;;;;;;18.93;52.45;95710.63;5077970;28;20185;-88
2022/09/07 02:02:19;;;;;;;15.68;3.22;;;;;;;18.35;52.87;95656.06;5077947;28;20035;-88
2022/09/07 02:05:08;;;;;;;6.20;2.92;;;;;;;18.75;52.83;95707.13;5078027;28;20036;-88
2022/09/07 02:07:41;;;;;;;8.52;2.88;;;;;;;17.55;52.70;95512.25;5077218;28;20143;-88
2022/09/07 02:10:12;;;;;;;7.22;3.15;;;;;;;18.69;52.70;95705.69;5098126;28;20045;-87
2022/09/07 02:12:48;;;;;;;4.07;2.65;;;;;;;18.77;52.56;95704.88;5098128;28;20043;-88
2022/09/07 02:15:20;;;;;;;7.85;3.15;;;;;;;18.35;52.88;95641.84;5098054;28;20038;-87
2022/09/07 02:17:50;;;;;;;5.95;2.80;;;;;;;16.57;52.55;95361.50;5098294;28;20039;-87
2022/09/07 02:20:25;;;;;;;7.90;2.90;;;;;;;18.72;52.81;95697.78;5098043;28;20039;-87
2022/09/07 02:22:57;;;;;;;7.72;2.88;;;;;;;15.85;52.98;95257.34;5097905;28;20039;-87
2022/09/07 02:25:31;;;;;;;;;;;;;;;18.64;53.07;95708.50;5097822;28;20097;-87
2022/09/07 02:28:07;;;;;;;12.55;3.78;;;;;;;18.69;52.79;95703.75;5097794;28;19915;-88
2022/09/07 02:30:32;;;;;;;7.32;2.65;;;;;;;18.20;53.01;95634.22;5101505;28;20038;-87
2022/09/07 02:32:58;;;;;;;4.85;2.55;;;;;;;16.73;53.09;95410.13;5097915;28;20485;-88
2022/09/07 02:35:24;;;;;;;7.43;3.25;;;;;;;16.89;52.80;95436.25;5097742;28;20071;-87
2022/09/07 02:37:51;;;;;;;4.85;2.50;;;;;;;15.86;52.65;95274.16;5115900;28;20088;-88
2022/09/07 02:40:17;;;;;;;5.45;3.05;;;;;;;18.12;52.72;95622.34;5097494;28;20122;-87
2022/09/07 02:42:44;;;;;;;6.28;2.72;;;;;;;18.06;53.06;95616.34;5097709;28;20074;-87
2022/09/07 02:45:12;;;;;;;12.50;3.05;;;;;;;18.07;52.83;95619.81;5097597;28;20028;-87
2022/09/07 02:47:52;;;;;;;6.38;2.97;;;;;;;15.97;53.21;95329.00;5097203;28;20031;-88
2022/09/07 02:50:43;;;;;;;6.38;2.70;;;;;;;18.52;53.10;95701.81;5097151;28;20019;-88
2022/09/07 02:53:31;;;;;;;11.18;3.05;;;;;;;18.45;53.16;95706.03;5115041;28;20046;-88
2022/09/07 02:56:05;;;;;;;10.73;3.22;;;;;;;18.30;53.34;95687.66;5094336;28;20044;-87
2022/09/07 02:58:33;;;;;;;4.80;2.75;;;;;;;18.28;53.56;95711.31;5094251;28;20039;-87
2022/09/07 03:01:13;;;;;;;5.88;2.85;;;;;;;18.31;53.46;95711.47;5093960;28;20044;-87
2022/09/07 03:03:54;;;;;;;5.75;2.60;;;;;;;17.65;53.66;95607.75;5093904;28;20059;-87
2022/09/07 03:06:31;;;;;;;3.97;2.67;;;;;;;17.63;53.34;95597.34;5096373;28;20040;-88
2022/09/07 03:09:00;;;;;;;9.93;3.25;;;;;;;18.06;53.15;95670.00;5094399;28;20036;-88
2022/09/07 03:11:27;;;;;;;7.32;2.80;;;;;;;17.72;53.62;95641.09;5113594;28;20128;-87
2022/09/07 03:14:10;;;;;;;4.65;2.88;;;;;;;17.44;53.66;95596.75;5094132;28;20023;-88
2022/09/07 03:16:36;;;;;;;3.88;2.97;;;;;;;17.15;53.18;95535.53;5103431;28;20237;-88
2022/09/07 03:19:01;;;;;;;4.03;2.55;;;;;;;15.86;53.53;95351.72;5102948;28;20035;-88
2022/09/07 03:21:27;;;;;;;10.23;2.80;;;;;;;15.89;53.49;95364.47;5102822;28;20055;-88
2022/09/07 03:23:52;;;;;;;5.10;2.55;;;;;;;18.11;53.98;95712.81;5101639;28;20499;-87
2022/09/07 03:26:27;;;;;;;10.27;2.60;;;;;;;16.21;54.14;95421.25;5118224;28;20042;-87
2022/09/07 03:28:52;;;;;;;9.02;3.45;;;;;;;17.74;54.68;95671.09;5103610;28;20180;-86
2022/09/07 03:31:19;;;;;;;4.15;2.72;;;;;;;16.08;54.33;95407.94;5097964;28;20084;-87
2022/09/07 03:33:44;;;;;;;5.60;2.92;;;;;;;17.19;54.40;95590.09;5097315;28;20039;-87
2022/09/07 03:36:10;;;;;;;4.13;2.85;;;;;;;17.61;54.36;95647.00;5097132;28;20040;-87
2022/09/07 03:38:35;;;;;;;7.68;2.70;;;;;;;17.43;54.43;95629.22;5096648;28;20082;-87
2022/09/07 03:41:04;;;;;;;7.90;3.17;;;;;;;17.92;54.59;95700.72;5096565;28;20023;-87
2022/09/07 03:43:30;;;;;;;6.95;3.05;;;;;;;17.95;54.99;95725.03;5114500;28;20048;-88
2022/09/07 03:46:04;;;;;;;8.40;2.95;;;;;;;15.46;54.88;95335.44;5096392;28;20422;-87
2022/09/07 03:48:32;;;;;;;11.75;3.13;;;;;;;17.99;54.75;95715.28;5095916;28;20073;-87
2022/09/07 03:51:04;;;;;;;4.70;2.83;;;;;;;17.54;54.93;95663.53;5096237;28;20019;-87
2022/09/07 03:53:31;;;;;;;6.68;3.08;;;;;;;17.94;54.79;95717.28;5096443;28;20040;-87
2022/09/07 03:56:01;;;;;;;8.07;3.20;;;;;;;15.81;54.73;95392.72;5096659;28;20127;-88
2022/09/07 03:58:28;;;;;;;11.07;3.42;;;;;;;17.56;54.91;95673.94;5096492;28;20035;-87
2022/09/07 04:00:54;;;;;;;5.32;3.00;;;;;;;13.85;55.29;95134.69;5095601;28;20039;-87
2022/09/07 04:03:20;;;;;;;6.15;2.95;;;;;;;17.39;55.27;95661.22;5096152;28;20087;-87
2022/09/07 04:05:45;;;;;;;10.02;3.40;;;;;;;16.93;54.75;95602.53;5095815;28;20027;-87
2022/09/07 04:08:11;;;;;;;6.43;3.75;;;;;;;15.49;54.33;95385.63;5095663;28;20570;-87
2022/09/07 04:10:38;;;;;;;12.00;3.53;;;;;;;17.64;54.94;95734.91;5095348;28;20032;-87
2022/09/07 04:13:04;;;;;;;4.18;3.00;;;;;;;17.46;54.62;95699.13;5095838;28;20031;-88
2022/09/07 04:15:29;;;;;;;12.65;3.42;;;;;;;15.51;54.74;95420.06;5095832;28;20032;-87
2022/09/07 04:17:55;;;;;;;6.18;3.22;;;;;;;14.75;54.92;95288.00;5095752;28;20473;-87
2022/09/07 04:20:20;;;;;;;5.28;2.97;;;;;;;15.41;54.69;95410.38;5095749;28;20038;-87
2022/09/07 04:22:49;;;;;;;6.72;3.45;;;;;;;14.89;54.52;95326.97;5096495;28;20114;-88
2022/09/07 04:25:15;;;;;;;11.88;3.78;;;;;;;17.57;54.66;95745.25;5113738;28;20036;-87
2022/09/07 04:27:41;;;;;;;13.82;3.17;;;;;;;16.93;54.56;95646.19;5095461;28;20023;-87
2022/09/07 04:30:07;;;;;;;7.97;3.50;;;;;;;17.55;54.34;95742.88;5095714;28;20135;-87
2022/09/07 04:32:33;;;;;;;7.70;3.75;;;;;;;17.21;54.04;95684.41;5095847;28;20020;-87
2022/09/07 04:34:58;;;;;;;4.93;3.50;;;;;;;17.55;54.21;95734.03;5095511;28;20317;-87
2022/09/07 04:37:23;;;;;;;9.40;3.58;;;;;;;16.17;54.23;95540.66;5096175;28;20035;-87
2022/09/07 04:39:50;;;;;;;8.68;3.20;;;;;;;17.44;54.66;95733.47;5095932;28;20035;-87
2022/09/07 04:42:16;;;;;;;7.65;3.35;;;;;;;17.48;54.30;95733.66;5093236;28;20542;-87
2022/09/07 04:44:41;;;;;;;5.60;3.10;;;;;;;16.74;54.24;95618.75;5088353;28;20023;-88
2022/09/07 04:47:07;;;;;;;7.80;3.60;;;;;;;17.53;54.41;95739.72;5094389;28;20034;-88
2022/09/07 04:49:32;;;;;;;10.40;4.05;;;;;;;17.23;54.03;95689.47;5086568;28;20118;-88
2022/09/07 04:51:58;;;;;;;8.63;3.70;;;;;;;16.81;53.71;95629.81;5107506;28;20035;-88
2022/09/07 04:54:25;;;;;;;13.77;3.65;;;;;;;15.37;53.87;95410.19;5066184;28;20036;-88
2022/09/07 04:56:51;;;;;;;14.52;3.47;;;;;;;15.54;54.15;95422.19;5063084;28;20032;-88
2022/09/07 04:59:16;;;;;;;9.57;4.00;;;;;;;13.78;53.63;95145.72;5080799;28;20404;-88
2022/09/07 05:01:42;;;;;;;14.18;4.18;;;;;;;17.00;53.63;95636.94;5069235;28;20032;-88
2022/09/07 05:04:07;;;;;;;7.13;3.35;;;;;;;17.09;53.88;95665.38;5058660;28;20028;-88
2022/09/07 05:06:36;;;;;;;10.07;3.30;;;;;;;16.93;53.48;95626.63;5070640;28;20028;-88
2022/09/07 05:09:02;;;;;;;12.50;3.38;;;;;;;14.92;53.18;95314.91;5052155;28;20681;-88
2022/09/07 05:11:28;;;;;;;14.77;3.60;;;;;;;14.87;53.07;95320.38;5062857;28;20037;-87
2022/09/07 05:13:59;;;;;;;6.78;3.00;;;;;;;13.14;52.87;95062.13;5070459;28;20055;-88
2022/09/07 05:16:25;;;;;;;12.75;3.15;;;;;;;12.91;52.72;94996.44;5058622;28;20126;-87
2022/09/07 05:18:54;;;;;;;6.43;2.92;;;;;;;13.29;52.24;95073.59;5070321;28;20036;-87
2022/09/07 05:21:26;;;;;;;9.93;3.33;;;;;;;15.88;52.49;95457.28;5078679;28;20020;-87
2022/09/07 05:23:53;;;;;;;11.63;3.80;;;;;;;16.39;52.45;95565.94;5067755;28;20058;-86
2022/09/07 05:26:20;;;;;;;7.85;2.88;;;;;;;17.46;52.44;95711.72;5069002;28;20032;-87
2022/09/07 05:28:47;;;;;;;9.25;3.15;;;;;;;15.54;52.75;95422.19;5066549;28;20112;-87
2022/09/07 05:31:19;;;;;;;15.05;4.43;;;;;;;15.00;52.49;95340.94;5064665;28;20036;-88
2022/09/07 05:34:01;;;;;;;18.83;5.13;;;;;;;16.06;52.08;95477.78;5067621;28;20036;-87
2022/09/07 05:36:28;;;;;;;19.13;4.63;;;;;;;13.31;52.14;95044.78;5081201;28;20082;-86
2022/09/07 05:38:55;;;;;;;24.15;5.85;;;;;;;15.99;52.00;95468.56;5060958;28;20036;-87
2022/09/07 05:41:40;;;;;;;48.50;9.32;;;;;;;16.31;52.33;95497.06;5069067;28;20074;-90
2022/09/07 05:44:06;;;;;;;36.80;6.97;;;;;;;13.81;52.52;95120.34;5065936;28;20041;-87
2022/09/07 05:46:32;;;;;;;26.98;7.13;;;;;;;13.48;52.71;95075.13;5052035;28;20105;-89
2022/09/07 05:48:59;;;;;;;20.00;5.78;;;;;;;15.81;53.36;95448.88;5067235;28;20032;-86
2022/09/07 05:51:25;;;;;;;38.47;7.45;;;;;;;13.65;52.92;95093.22;5060610;28;20039;-87
2022/09/07 05:53:50;;;;;;;42.47;7.75;;;;;;;16.13;52.92;95494.22;5057747;28;20096;-88
2022/09/07 05:56:16;;;;;;;28.63;4.55;;;;;;;17.25;52.45;95639.81;5063284;28;20040;-88
2022/09/07 05:58:41;;;;;;;15.60;3.35;;;;;;;15.78;52.31;95396.03;5052875;28;20727;-88
2022/09/07 06:01:12;;;;;;;20.38;4.40;;;;;;;18.03;52.50;95736.91;5055687;28;20043;-87
2022/09/07 06:03:39;;;;;;;11.73;3.95;;;;;;;13.61;52.28;95052.22;5066619;28;20031;-89
2022/09/07 06:06:07;;;;;;;10.13;3.65;;;;;;;17.61;52.16;95690.75;5065154;28;21332;-88
2022/09/07 06:08:35;;;;;;;17.55;4.40;;;;;;;18.03;52.10;95732.34;5070642;28;20175;-89
2022/09/07 06:11:05;;;;;;;11.23;3.50;;;;;;;17.90;52.51;95717.13;5078884;28;20039;-88
2022/09/07 06:13:31;;;;;;;14.43;3.67;;;;;;;16.04;52.49;95415.75;5070038;28;20040;-88
2022/09/07 06:16:06;;;;;;;9.32;3.25;;;;;;;14.01;52.11;95100.53;5079484;28;20039;-87
2022/09/07 06:18:39;;;;;;;14.73;3.45;;;;;;;14.12;52.49;95105.34;5082532;28;20029;-89
2022/09/07 06:21:07;;;;;;;8.13;3.13;;;;;;;18.35;52.59;95752.75;5074809;28;20240;-88
2022/09/07 06:23:36;;;;;;;13.23;4.13;;;;;;;14.22;52.96;95134.50;5100110;27;20192;-89
2022/09/07 06:26:07;;;;;;;11.55;3.60;;;;;;;13.74;53.30;95061.31;5099731;28;20024;-89
2022/09/07 06:28:35;;;;;;;12.75;3.38;;;;;;;16.82;53.25;95515.44;5088913;27;20613;-91
2022/09/07 06:31:12;;;;;;;11.73;4.00;;;;;;;16.77;52.62;95488.78;5099771;28;20035;-91
2022/09/07 06:33:38;;;;;;;19.98;4.93;;;;;;;14.24;52.48;95096.88;5078193;28;20032;-89
2022/09/07 06:36:10;;;;;;;15.45;4.57;;;;;;;18.51;52.26;95764.66;5092420;27;20143;-90
2022/09/07 06:38:40;;;;;;;11.63;3.55;;;;;;;13.08;52.30;94950.66;5109298;27;20126;-88
2022/09/07 06:41:17;;;;;;;11.55;3.00;;;;;;;14.55;52.14;95150.44;5088234;28;20024;-89
2022/09/07 06:43:43;;;;;;;8.02;3.38;;;;;;;16.26;51.92;95398.13;5082644;28;20871;-90
2022/09/07 06:46:09;;;;;;;6.88;2.80;;;;;;;14.67;51.80;95137.34;5084757;28;20027;-90
2022/09/07 06:48:35;;;;;;;10.63;2.70;;;;;;;14.69;51.01;95137.84;5089970;28;20098;-89
2022/09/07 06:51:14;;;;;;;6.38;2.88;;;;;;;14.56;51.43;95130.66;5089020;28;20077;-89
2022/09/07 06:53:41;;;;;;;13.85;4.00;;;;;;;18.55;52.29;95724.53;5081238;28;20031;-90
2022/09/07 06:56:28;;;;;;;10.55;4.03;;;;;;;14.77;50.72;95182.53;5089880;28;20112;-89
2022/09/07 06:58:55;;;;;;;5.22;3.03;;;;;;;14.76;50.14;95140.91;5089876;28;20043;-89
2022/09/07 07:01:22;;;;;;;13.45;3.63;;;;;;;17.29;49.88;95519.38;5093030;28;20506;-89
2022/09/07 07:03:49;;;;;;;11.52;3.65;;;;;;;16.79;49.90;95457.91;5095288;28;20031;-89
2022/09/07 07:06:14;;;;;;;9.27;3.22;;;;;;;18.35;49.40;95692.88;5082860;28;20411;-87
2022/09/07 07:08:40;;;;;;;14.52;3.20;;;;;;;19.03;49.59;95764.09;5085407;28;20117;-88
2022/09/07 07:11:09;;;;;;;10.38;2.85;;;;;;;16.38;50.44;95367.06;5078137;28;20083;-88
2022/09/07 07:13:35;;;;;;;6.85;2.90;;;;;;;19.05;50.12;95776.13;5053555;28;20048;-87
2022/09/07 07:16:07;;;;;;;21.83;4.30;;;;;;;18.56;49.91;95710.03;5041982;28;20469;-87
2022/09/07 07:18:33;;;;;;;8.93;3.05;;;;;;;18.66;49.61;95725.88;5055962;28;20032;-87
2022/09/07 07:21:07;;;;;;;9.05;2.83;;;;;;;14.94;49.50;95136.50;5056855;28;20436;-89
2022/09/07 07:23:33;;;;;;;16.35;3.17;;;;;;;18.93;49.74;95735.59;5055822;28;20036;-88
2022/09/07 07:26:09;;;;;;;5.15;2.40;;;;;;;17.24;49.39;95464.00;5058992;28;20055;-88
2022/09/07 07:28:34;;;;;;;11.45;3.28;;;;;;;16.03;49.57;95274.25;5059048;28;20092;-87
2022/09/07 07:31:05;;;;;;;11.13;2.83;;;;;;;17.86;50.07;95549.00;5068425;28;20029;-87
2022/09/07 07:33:33;;;;;;;8.05;2.85;;;;;;;17.54;49.59;95491.13;5049471;28;20152;-86
2022/09/07 07:36:15;;;;;;;8.93;3.13;;;;;;;19.38;49.38;95773.00;5039968;28;20033;-86
2022/09/07 07:38:42;;;;;;;8.20;3.05;;;;;;;19.45;49.35;95776.06;5050508;28;20190;-86
2022/09/07 07:41:08;;;;;;;12.10;3.33;;;;;;;19.36;49.53;95773.34;5036340;28;20040;-86
2022/09/07 07:43:40;;;;;;;16.65;2.90;;;;;;;19.43;49.57;95778.25;5063891;28;20029;-87
2022/09/07 07:46:15;;;;;;;8.82;2.90;;;;;;;18.41;49.67;95635.25;5060348;28;20407;-87
2022/09/07 07:48:41;;;;;;;8.27;3.28;;;;;;;18.62;49.79;95665.03;5048043;28;20031;-87
2022/09/07 07:51:10;;;;;;;7.75;2.20;;;;;;;19.40;49.75;95758.16;5050578;28;20032;-88
2022/09/07 07:53:40;;;;;;;15.75;3.65;;;;;;;18.06;49.39;95524.31;5064604;28;20035;-87
2022/09/07 07:56:09;;;;;;;13.50;4.13;;;;;;;15.13;49.74;95064.22;5084700;28;20154;-87
2022/09/07 07:58:37;;;;;;;8.30;3.03;;;;;;;17.99;48.72;95519.38;5064878;28;20129;-88
2022/09/07 08:01:06;;;;;;;8.60;3.85;;;;;;;16.53;49.24;95312.34;5056454;28;20501;-87
2022/09/07 08:03:35;;;;;;;8.93;3.30;;;;;;;15.20;48.33;95124.13;5059335;28;20032;-88
2022/09/07 08:06:10;;;;;;;9.60;3.20;;;;;;;19.14;48.66;95733.13;5051358;28;20468;-87
2022/09/07 08:08:36;;;;;;;10.77;2.90;;;;;;;17.81;48.66;95465.97;5052168;28;20047;-87
2022/09/07 08:11:07;;;;;;;10.68;3.28;;;;;;;19.68;48.42;95761.38;5057619;28;20441;-87
2022/09/07 08:13:43;;;;;;;;;;;;;;;19.83;49.38;95765.50;5087976;28;20080;-87
2022/09/07 08:16:10;;;;;;;5.57;3.05;;;;;;;17.91;49.51;95463.81;5073185;28;20726;-87
2022/09/07 08:18:38;;;;;;;9.88;3.00;;;;;;;19.42;48.53;95704.03;5052170;28;20098;-85
2022/09/07 08:21:10;;;;;;;9.75;3.72;;;;;;;19.87;49.32;95772.59;5058334;28;20131;-86
2022/09/07 08:23:36;;;;;;;7.13;3.40;;;;;;;18.06;48.30;95466.03;5064183;28;20024;-88
2022/09/07 08:26:02;;;;;;;10.48;3.58;;;;;;;19.75;48.00;95717.84;5059447;28;20146;-87
2022/09/07 08:28:29;;;;;;;7.45;3.17;;;;;;;17.51;48.04;95361.13;5049712;28;20056;-87
2022/09/07 08:30:55;;;;;;;5.13;2.40;;;;;;;19.37;47.70;95672.72;5055033;28;20101;-88
2022/09/07 08:33:20;;;;;;;9.35;4.70;;;;;;;18.68;47.91;95567.09;5057149;28;20037;-87
2022/09/07 08:35:54;;;;;;;11.80;3.92;;;;;;;18.38;47.85;95490.88;5056109;28;20654;-87
2022/09/07 08:38:19;;;;;;;8.85;3.15;;;;;;;19.18;47.48;95618.47;5057015;28;20574;-88
2022/09/07 08:40:45;;;;;;;13.23;3.85;;;;;;;18.60;48.18;95487.28;5055429;28;20035;-88
2022/09/07 08:43:29;;;;;;;7.13;3.75;;;;;;;20.23;48.50;95725.66;5053754;28;20032;-88
2022/09/07 08:46:13;;;;;;;14.13;4.18;;;;;;;19.96;48.13;95683.75;5049567;28;20036;-88
2022/09/07 08:48:39;;;;;;;10.27;3.38;;;;;;;19.78;47.81;95644.53;5058449;28;20045;-86
2022/09/07 08:51:04;;;;;;;5.75;3.33;;;;;;;20.34;48.28;95743.88;5051198;28;20247;-86
2022/09/07 08:53:33;;;;;;;9.10;3.13;;;;;;;16.28;48.00;95089.00;5047985;28;20062;-86
2022/09/07 08:56:04;;;;;;;6.75;3.58;;;;;;;20.54;47.89;95737.00;5053740;28;20460;-86
2022/09/07 08:58:30;;;;;;;18.58;4.55;;;;;;;20.65;48.91;95732.03;5066554;28;20097;-87
2022/09/07 09:00:55;;;;;;;4.93;3.17;;;;;;;19.63;46.73;95576.66;5047045;28;20044;-87
2022/09/07 09:03:26;;;;;;;6.30;3.80;;;;;;;20.64;47.29;95727.75;5071634;28;20036;-88
2022/09/07 09:06:36;;;;;;;43.40;18.80;;;;;;;20.64;47.06;95717.00;5077590;28;20040;-87
2022/09/07 09:09:30;;;;;;;14.63;7.57;;;;;;;20.65;47.90;95703.19;5046507;28;20129;-87
2022/09/07 09:12:40;;;;;;;9.93;5.75;;;;;;;17.13;46.79;95157.22;5061553;28;20039;-87
2022/09/07 09:15:20;;;;;;;9.05;3.78;;;;;;;19.00;46.41;95437.59;5034630;28;20048;-86
2022/09/07 09:18:09;;;;;;;12.68;3.33;;;;;;;16.85;45.81;95087.09;5063235;28;20811;-87
2022/09/07 09:20:46;;;;;;;5.03;3.08;;;;;;;20.21;47.08;95593.25;5059932;28;20085;-87
2022/09/07 09:23:14;;;;;;;13.10;4.03;;;;;;;20.76;47.68;95668.56;5061553;28;20035;-87
2022/09/07 09:26:26;;;;;;;11.05;4.20;;;;;;;20.88;48.05;95687.53;5058004;28;20081;-87
2022/09/07 09:28:52;;;;;;;21.27;8.13;;;;;;;21.14;47.24;95703.53;5063385;28;20043;-87
2022/09/07 09:31:21;;;;;;;18.17;7.85;;;;;;;21.20;47.30;95701.50;5063179;28;20525;-87
2022/09/07 09:34:04;;;;;;;7.72;4.03;;;;;;;21.27;45.90;95699.84;5061148;28;20134;-90
2022/09/07 09:36:33;;;;;;;7.72;3.28;;;;;;;20.19;46.33;95512.00;5061738;28;20040;-90
2022/09/07 09:39:02;;;;;;;5.88;3.10;;;;;;;19.33;46.29;95388.63;5061542;28;20968;-90
2022/09/07 09:41:36;;;;;;;6.88;3.47;;;;;;;21.08;45.96;95653.63;5064868;28;20043;-89
2022/09/07 09:44:02;;;;;;;11.23;3.88;;;;;;;21.28;45.94;95669.06;5063145;28;20044;-89
2022/09/07 09:46:49;;;;;;;5.40;3.38;;;;;;;19.28;45.99;95344.69;5039296;28;20044;-89
2022/09/07 09:49:39;;;;;;;6.40;3.67;;;;;;;17.80;46.59;95108.41;5050812;28;20036;-87
2022/09/07 09:52:17;;;;;;;4.78;3.03;;;;;;;20.98;46.76;95600.84;5058381;28;20123;-88
2022/09/07 09:54:48;;;;;;;10.88;4.80;;;;;;;21.03;45.93;95570.22;5064806;28;20028;-89
2022/09/07 09:57:37;;;;;;;9.02;5.85;;;;;;;20.41;45.98;95363.56;5060745;28;20107;-87
2022/09/07 10:00:03;;;;;;;11.80;4.82;;;;;;;22.29;44.04;95477.69;5059190;28;20040;-87
2022/09/07 10:03:17;;;;;;;8.07;4.57;;;;;;;21.39;40.05;95194.63;5063321;28;20483;-87
2022/09/07 10:17:36;;;;;;;3.88;2.80;;;;;;;29.52;30.18;95571.66;5091960;27;20550;-88
2022/09/07 10:21:08;;;;;;;;;;;;;;;;;;;;;
2022/09/07 10:23:34;;;;;;;4.80;2.65;;;;;;;30.09;27.58;95439.78;4966883;28;20046;-88
2022/09/07 10:26:19;;;;;;;7.50;3.53;;;;;;;28.95;26.59;95193.88;4969128;28;20064;-87
2022/09/07 10:29:25;;;;;;;6.18;3.03;;;;;;;32.31;25.94;95644.91;5044941;28;20086;-88
2022/09/07 10:32:46;;;;;;;7.00;2.90;;;;;;;32.69;25.51;95638.38;5071602;28;20909;-88
2022/09/07 10:35:40;;;;;;;9.10;3.55;;;;;;;33.12;25.71;95637.97;5061085;28;20032;-88
2022/09/07 10:38:12;;;;;;;9.77;2.95;;;;;;;32.92;24.67;95610.31;5056685;28;20024;-88
2022/09/07 10:48:13;;;;;;;6.03;2.65;;;;;;;33.33;24.88;95619.34;5006942;28;20074;-87
2022/09/07 10:51:11;;;;;;;;;;;;;;;;;;;;;
2022/09/07 10:57:38;;;;;;;8.35;3.17;;;;;;;33.81;25.19;95609.34;5080062;28;20155;-87
2022/09/07 11:06:32;;;;;;;8.25;3.00;;;;;;;33.76;24.18;95593.31;5083908;28;20062;-88
2022/09/07 11:09:26;;;;;;;3.85;2.97;;;;;;;33.80;25.08;95603.06;5037038;28;20049;-88
2022/09/07 11:15:03;;;;;;;4.22;2.75;;;;;;;33.60;25.11;95602.91;5056079;28;20056;-87
2022/09/07 11:17:29;;;;;;;8.02;2.67;;;;;;;33.53;24.51;95558.22;5039553;28;20131;-87
2022/09/07 11:20:07;;;;;;;5.53;2.22;;;;;;;32.21;23.95;95361.16;5031363;28;20044;-88
2022/09/07 11:30:24;;;;;;;4.55;2.88;;;;;;;32.93;24.66;95578.91;5073974;28;20090;-88
2022/09/07 11:33:35;;;;;;;11.48;3.40;;;;;;;33.21;24.99;95581.38;5058392;28;20369;-87
2022/09/07 11:36:15;;;;;;;6.13;2.95;;;;;;;33.27;24.69;95579.72;5052371;28;20479;-87
2022/09/07 11:39:03;;;;;;;8.07;2.40;;;;;;;33.24;24.44;95575.06;5087478;28;20040;-87
2022/09/07 11:41:35;;;;;;;5.15;2.78;;;;;;;32.68;25.07;95413.59;5057711;28;20706;-88
2022/09/07 11:44:03;;;;;;;4.15;2.42;;;;;;;33.86;25.29;95573.94;5074724;28;20098;-87
2022/09/07 11:46:37;;;;;;;2.97;2.25;;;;;;;32.01;24.75;95256.72;5068889;28;20451;-87
2022/09/07 11:49:11;;;;;;;5.07;2.28;;;;;;;32.03;24.74;95279.03;5072973;28;20067;-87
2022/09/07 11:51:45;;;;;;;5.30;2.20;;;;;;;33.96;24.74;95542.72;5061098;28;20032;-88
2022/09/07 11:54:26;;;;;;;5.50;2.45;;;;;;;34.20;24.42;95549.03;5065919;28;20039;-87
2022/09/07 11:57:21;;;;;;;6.20;2.53;;;;;;;34.42;23.50;95561.28;5088803;28;20161;-88
2022/09/07 12:00:18;;;;;;;2.88;2.60;;;;;;;31.54;23.38;95080.19;5076305;28;20032;-88
2022/09/07 12:03:03;;;;;;;5.28;2.78;;;;;;;34.80;23.32;95561.06;5065435;28;20100;-87
2022/09/07 12:05:50;;;;;;;4.45;2.70;;;;;;;34.83;22.90;95527.16;5070055;28;20043;-87
2022/09/07 12:08:24;;;;;;;6.43;2.45;;;;;;;34.99;22.67;95546.56;5073548;28;20055;-88
2022/09/07 12:11:29;;;;;;;3.83;3.05;;;;;;;35.11;22.53;95547.88;5065536;28;20040;-88
2022/09/07 12:14:21;;;;;;;5.55;2.50;;;;;;;34.86;22.49;95495.25;5063292;28;20094;-87
2022/09/07 12:17:24;;;;;;;3.63;2.40;;;;;;;35.04;22.38;95537.78;5089479;28;20039;-87
2022/09/07 12:20:20;;;;;;;6.30;2.60;;;;;;;34.79;22.42;95531.94;5066386;28;20057;-89
2022/09/07 12:22:59;;;;;;;8.10;2.50;;;;;;;34.52;22.74;95536.75;5045225;28;20048;-88
2022/09/07 12:25:24;;;;;;;7.75;2.50;;;;;;;32.95;22.67;95238.66;5063679;28;20659;-88
2022/09/07 12:27:50;;;;;;;4.72;2.78;;;;;;;34.16;23.42;95485.03;5090513;28;20111;-88
2022/09/07 12:30:17;;;;;;;7.60;2.83;;;;;;;34.93;23.43;95528.97;5076549;28;20058;-88
2022/09/07 12:32:45;;;;;;;5.97;2.42;;;;;;;35.05;22.78;95505.50;5081662;28;20036;-88
2022/09/07 12:35:29;;;;;;;5.93;2.53;;;;;;;35.09;23.51;95528.25;5061183;28;20040;-88
2022/09/07 12:37:59;;;;;;;3.97;2.92;;;;;;;35.38;22.52;95522.97;5062320;28;20139;-88
2022/09/07 12:40:39;;;;;;;7.22;2.35;;;;;;;35.56;22.12;95521.38;5057230;28;20040;-88